Forside
METAR-TAF:

METAR-TAF

Lufthavne :

Bahrain, Bahrain

Breddekreds: 26-16N, længdekreds: 050-39E, højde: 2 m

Aktuelle vejr

Denne rapport blev lavet for 26 minutter siden, kl. 13:00 UTC
Vind 10 kt fra nordnordvest
Temperatur 23°C
Fugtighed 65%
Tryk 1020 hPa
Sigt 10 km eller mere
Spredte skyer i en højde af 2500 ft

METAR: OBBI 191300Z 34010KT 9999 SCT025 23/16 Q1020 NOSIG

Tid: 16:26 (13:26 UTC)

Vejrudsigter

Denne rapport blev lavet for 2 timer og 26 minutter siden, kl. 11:00 UTC
Foreløbig gælder fra 19 på 12 UTC til 20 på 18 UTC
Vind 10 kt fra nordnordvest
Sigt 10 km eller mere
Spredte skyer i en højde af 3000 ft
Midlertidig
fra 19 på 20 UTC til 20 på 06 UTC
Sigt: 5000 m
tåge/dis
Sandsynlighed 30% :
Midlertidig
fra 20 på 00 UTC til 20 på 05 UTC
Sigt: 2000 m
Brudte skyer i en højde af 800 ft
dis

TAF: OBBI 191100Z 1912/2018 34010KT 9999 SCT030 TEMPO 1920/2006 5000 HZ PROB30 TEMPO 2000/2005 2000 BR BKN008

Vejrobservationer og prognoser fra mere end 4000 lufthavne (METAR og TAF).

De gule og røde prikker repræsenterer de meteorologiske stationer.

Flyt musen over at se navnet på stationen.

Så klik over at se vejr observationer og prognoser.

At skifte det kort: Klik på de grønne knapper med et sort kors for at zoome ind; på den grønne knap med en bindestreg for at zoome ud; eller på de grønne pile for tilstødende kort.


METAR-TAF: